Time;durP1;ratioP1;P1;durP2;ratioP2;P2;SDS_P1;SDS_P2;PMS_P1;PMS_P2;Temp;Humidity;BMP_temperature;BMP_pressure;BME280_temperature;BME280_humidity;BME280_pressure;Samples;Min_cycle;Max_cycle;Signal;HPM_P1;HPM_P2
2024/04/20 00:00:17;;;;;;;2.00;0.95;;;4.00;99.90;;;;;;5290252;27;20398;-76
2024/04/20 00:02:42;;;;;;;1.48;1.38;;;4.00;99.90;;;;;;5298974;27;20012;-76
2024/04/20 00:05:08;;;;;;;1.00;1.00;;;4.00;99.90;;;;;;5287634;27;19998;-76
2024/04/20 00:07:33;;;;;;;0.85;0.85;;;4.00;99.90;;;;;;5292783;27;20054;-76
2024/04/20 00:09:59;;;;;;;1.00;1.00;;;3.90;99.90;;;;;;5298547;27;20012;-76
2024/04/20 00:12:25;;;;;;;1.05;1.05;;;3.90;99.90;;;;;;5293044;27;20020;-76
2024/04/20 00:14:54;;;;;;;0.90;0.90;;;3.90;99.90;;;;;;5298962;27;20049;-76
2024/04/20 00:17:19;;;;;;;1.50;1.42;;;3.80;99.90;;;;;;5294348;27;19997;-76
2024/04/20 00:19:45;;;;;;;1.10;1.10;;;3.80;99.90;;;;;;5297297;27;20006;-76
2024/04/20 00:22:12;;;;;;;0.90;0.90;;;3.80;99.90;;;;;;5301227;27;20163;-77
2024/04/20 00:24:38;;;;;;;1.02;1.00;;;3.80;99.90;;;;;;5296221;26;20070;-76
2024/04/20 00:27:05;;;;;;;1.08;0.98;;;3.70;99.90;;;;;;5298398;27;20952;-76
2024/04/20 00:29:31;;;;;;;0.98;0.98;;;3.70;99.90;;;;;;5270886;27;20009;-76
2024/04/20 00:31:57;;;;;;;1.27;1.17;;;3.60;99.90;;;;;;5296304;27;20013;-76
2024/04/20 00:34:22;;;;;;;2.50;0.95;;;3.50;99.90;;;;;;5291464;27;20336;-76
2024/04/20 00:36:52;;;;;;;0.80;0.80;;;3.50;99.90;;;;;;5295387;27;20817;-75
2024/04/20 00:39:18;;;;;;;0.70;0.70;;;3.50;99.90;;;;;;5290577;27;19997;-75
2024/04/20 00:41:48;;;;;;;0.65;0.65;;;3.50;99.90;;;;;;5292424;27;19998;-75
2024/04/20 00:44:14;;;;;;;1.30;1.20;;;3.40;99.90;;;;;;5298112;27;20495;-76
2024/04/20 00:46:41;;;;;;;0.70;0.70;;;3.40;99.90;;;;;;5266022;27;20012;-76
2024/04/20 00:49:09;;;;;;;1.00;1.00;;;3.50;99.90;;;;;;5265703;27;20001;-76
2024/04/20 00:51:36;;;;;;;0.77;0.75;;;3.50;99.90;;;;;;5300227;27;20002;-76
2024/04/20 00:54:03;;;;;;;0.90;0.90;;;3.50;99.90;;;;;;5293855;27;19998;-76
2024/04/20 00:56:31;;;;;;;0.82;0.82;;;3.50;99.90;;;;;;5300103;27;20017;-76
2024/04/20 00:58:57;;;;;;;0.88;0.88;;;3.40;99.90;;;;;;5299423;27;20539;-76
2024/04/20 01:01:26;;;;;;;0.80;0.80;;;3.30;99.90;;;;;;5298693;27;20014;-77
2024/04/20 01:03:51;;;;;;;;;;;3.30;99.90;;;;;;5299267;27;19998;-76
2024/04/20 01:06:17;;;;;;;0.80;0.80;;;3.30;99.90;;;;;;5273489;27;19933;-75
2024/04/20 01:08:43;;;;;;;1.33;1.23;;;3.20;99.90;;;;;;5301038;27;20083;-75
2024/04/20 01:11:11;;;;;;;0.50;0.50;;;3.20;99.90;;;;;;5305737;26;20001;-76
2024/04/20 01:13:37;;;;;;;1.23;1.15;;;3.20;99.90;;;;;;5300543;27;20019;-76
2024/04/20 01:16:02;;;;;;;1.00;1.00;;;3.30;99.90;;;;;;5305035;27;20048;-76
2024/04/20 01:18:28;;;;;;;0.70;0.70;;;3.30;99.90;;;;;;5272629;27;20009;-75
2024/04/20 01:20:55;;;;;;;0.80;0.80;;;3.30;99.90;;;;;;5301767;27;20006;-75
2024/04/20 01:23:21;;;;;;;1.75;1.05;;;3.20;99.90;;;;;;5304318;27;20021;-75
2024/04/20 01:25:51;;;;;;;1.08;1.02;;;3.20;99.90;;;;;;5301560;27;20001;-76
2024/04/20 01:28:18;;;;;;;0.88;0.88;;;3.10;99.90;;;;;;5301911;27;20016;-75
2024/04/20 01:30:43;;;;;;;0.95;0.95;;;3.10;99.90;;;;;;5274468;27;20017;-76
2024/04/20 01:33:10;;;;;;;0.70;0.70;;;3.10;99.90;;;;;;5269202;27;20012;-75
2024/04/20 01:35:39;;;;;;;1.00;1.00;;;3.20;99.90;;;;;;5298268;27;20028;-76
2024/04/20 01:38:05;;;;;;;1.20;1.10;;;3.10;99.90;;;;;;5297433;27;20007;-75
2024/04/20 01:40:31;;;;;;;0.85;0.85;;;3.10;99.90;;;;;;5303024;27;20321;-75
2024/04/20 01:42:57;;;;;;;1.40;1.15;;;3.10;99.90;;;;;;5307423;27;20001;-75
2024/04/20 01:45:23;;;;;;;1.20;1.10;;;3.10;99.90;;;;;;5309307;27;20005;-76
2024/04/20 01:47:48;;;;;;;1.45;1.35;;;3.20;99.90;;;;;;5303865;26;20404;-75
2024/04/20 01:50:16;;;;;;;1.83;1.10;;;3.20;99.90;;;;;;5305300;27;20073;-75
2024/04/20 01:52:42;;;;;;;2.78;1.35;;;3.20;99.90;;;;;;5306361;27;20447;-75
2024/04/20 01:55:07;;;;;;;1.75;1.25;;;3.10;99.90;;;;;;5306201;27;20016;-76
2024/04/20 01:57:34;;;;;;;1.45;1.35;;;3.10;99.90;;;;;;5306262;27;20016;-76
2024/04/20 01:59:59;;;;;;;1.65;1.33;;;3.20;99.90;;;;;;5302813;27;20010;-76
2024/04/20 02:02:25;;;;;;;1.38;1.17;;;3.30;99.90;;;;;;5296558;27;20021;-76
2024/04/20 02:04:50;;;;;;;1.55;1.45;;;3.30;99.90;;;;;;5254042;26;20049;-75
2024/04/20 02:07:16;;;;;;;2.13;1.73;;;3.40;99.90;;;;;;5291251;27;20002;-76
2024/04/20 02:09:45;;;;;;;1.38;1.25;;;3.40;99.90;;;;;;5293619;27;20056;-76
2024/04/20 02:12:11;;;;;;;0.88;0.85;;;3.40;99.90;;;;;;5296271;27;20012;-76
2024/04/20 02:14:37;;;;;;;2.40;1.38;;;3.50;99.90;;;;;;5291286;27;19998;-75
2024/04/20 02:17:03;;;;;;;1.42;1.33;;;3.50;99.90;;;;;;5264256;27;19998;-76
2024/04/20 02:19:28;;;;;;;2.08;1.73;;;3.60;99.90;;;;;;5264207;26;20005;-75
2024/04/20 02:21:54;;;;;;;1.08;1.02;;;3.60;99.90;;;;;;5300322;27;20010;-75
2024/04/20 02:24:20;;;;;;;0.85;0.85;;;3.60;99.90;;;;;;5290070;27;20774;-75
2024/04/20 02:26:46;;;;;;;2.47;1.27;;;3.50;99.90;;;;;;5294667;27;20014;-75
2024/04/20 02:29:11;;;;;;;1.33;1.20;;;3.50;99.90;;;;;;5297255;27;20053;-76
2024/04/20 02:31:37;;;;;;;0.90;0.90;;;3.50;99.90;;;;;;5301105;27;20082;-76
2024/04/20 02:34:03;;;;;;;1.88;1.15;;;3.40;99.90;;;;;;5300632;27;20049;-76
2024/04/20 02:36:30;;;;;;;2.58;1.13;;;3.40;99.90;;;;;;5258736;27;20727;-76
2024/04/20 02:38:56;;;;;;;1.33;1.23;;;3.40;99.90;;;;;;5294395;27;20013;-76
2024/04/20 02:41:22;;;;;;;1.35;1.33;;;3.40;99.90;;;;;;5300742;27;20019;-76
2024/04/20 02:43:47;;;;;;;0.77;0.77;;;3.40;99.90;;;;;;5298285;27;20001;-75
2024/04/20 02:46:13;;;;;;;3.35;1.20;;;3.30;99.90;;;;;;5293175;27;20002;-75
2024/04/20 02:48:39;;;;;;;1.33;1.30;;;3.20;99.90;;;;;;5265937;27;19998;-75
2024/04/20 02:51:05;;;;;;;1.17;1.17;;;3.20;99.90;;;;;;5301651;27;20021;-76
2024/04/20 02:53:33;;;;;;;0.88;0.88;;;3.10;99.90;;;;;;5268508;27;20030;-76
2024/04/20 02:55:59;;;;;;;1.50;1.50;;;3.10;99.90;;;;;;5302165;27;20132;-76
2024/04/20 02:58:25;;;;;;;2.08;1.40;;;3.10;99.90;;;;;;5305657;27;20504;-76
2024/04/20 03:00:55;;;;;;;1.00;1.00;;;3.10;99.90;;;;;;5301673;27;19998;-76
2024/04/20 03:03:20;;;;;;;1.65;1.50;;;3.10;99.90;;;;;;5302621;27;20017;-76
2024/04/20 03:05:46;;;;;;;1.30;1.30;;;3.10;99.90;;;;;;5272183;27;20013;-76
2024/04/20 03:08:11;;;;;;;1.25;1.25;;;3.10;99.90;;;;;;5303259;27;20009;-76
2024/04/20 03:10:37;;;;;;;1.42;1.33;;;3.10;99.90;;;;;;5266569;27;20009;-76
2024/04/20 03:13:03;;;;;;;1.13;1.13;;;3.20;99.90;;;;;;5291693;27;20033;-76
2024/04/20 03:15:28;;;;;;;1.08;1.08;;;3.20;99.90;;;;;;5298122;27;20113;-76
2024/04/20 03:17:54;;;;;;;2.50;1.92;;;3.20;99.90;;;;;;5293072;27;19998;-76
2024/04/20 03:20:21;;;;;;;0.75;0.75;;;3.20;99.90;;;;;;5296151;27;20017;-76
2024/04/20 03:22:46;;;;;;;3.13;1.15;;;3.20;99.90;;;;;;5297104;27;20001;-76
2024/04/20 03:25:12;;;;;;;2.20;1.33;;;3.20;99.90;;;;;;5298044;27;20101;-76
2024/04/20 03:27:39;;;;;;;2.35;1.33;;;3.20;99.90;;;;;;5298761;27;20017;-76
2024/04/20 03:30:05;;;;;;;5.00;4.00;;;3.20;99.90;;;;;;5294592;27;20012;-76
2024/04/20 03:32:31;;;;;;;1.90;1.73;;;3.20;99.90;;;;;;5293749;27;20006;-76
2024/04/20 03:34:56;;;;;;;0.93;0.93;;;3.20;99.90;;;;;;5299976;27;19998;-76
2024/04/20 03:37:22;;;;;;;0.70;0.70;;;3.20;99.90;;;;;;5296368;27;19998;-75
2024/04/20 03:39:48;;;;;;;2.13;1.95;;;3.20;99.90;;;;;;5289446;26;22189;-76
2024/04/20 03:42:14;;;;;;;1.98;1.77;;;3.20;99.90;;;;;;5264533;27;20021;-76
2024/04/20 03:44:40;;;;;;;1.25;1.20;;;3.20;99.90;;;;;;5268411;27;21008;-75
2024/04/20 03:47:06;;;;;;;1.05;0.95;;;3.20;99.90;;;;;;5296729;27;20326;-76
2024/04/20 03:49:31;;;;;;;1.55;1.50;;;3.20;99.90;;;;;;5299713;27;20494;-75
2024/04/20 03:51:57;;;;;;;3.55;1.88;;;3.20;99.90;;;;;;5267852;27;20090;-76
2024/04/20 03:54:23;;;;;;;2.63;1.55;;;3.20;99.90;;;;;;5302298;27;20093;-77
2024/04/20 03:56:48;;;;;;;0.77;0.77;;;3.20;99.90;;;;;;5297080;27;20002;-75
2024/04/20 03:59:14;;;;;;;1.77;1.23;;;3.20;99.90;;;;;;5297172;27;20426;-76
2024/04/20 04:01:40;;;;;;;7.82;1.98;;;3.20;99.90;;;;;;5270781;27;20002;-75
2024/04/20 04:04:06;;;;;;;1.92;1.65;;;3.20;99.90;;;;;;5294119;27;20013;-75
2024/04/20 04:06:32;;;;;;;1.48;1.38;;;3.20;99.90;;;;;;5295791;27;20009;-75
2024/04/20 04:08:59;;;;;;;1.25;1.15;;;3.20;99.90;;;;;;5293719;27;20045;-76
2024/04/20 04:11:24;;;;;;;1.83;1.70;;;3.30;99.90;;;;;;5295823;27;19998;-76
2024/04/20 04:13:50;;;;;;;4.30;1.83;;;3.30;99.90;;;;;;5289070;27;20084;-76
2024/04/20 04:16:16;;;;;;;1.75;1.20;;;3.30;99.90;;;;;;5295237;27;19997;-76
2024/04/20 04:18:41;;;;;;;1.42;1.33;;;3.40;99.90;;;;;;5266409;27;20002;-76
2024/04/20 04:21:10;;;;;;;1.38;1.38;;;3.40;99.90;;;;;;5300015;27;20583;-76
2024/04/20 04:23:39;;;;;;;0.95;0.95;;;3.40;99.90;;;;;;5293524;27;20533;-76
2024/04/20 04:26:06;;;;;;;2.25;1.80;;;3.50;99.90;;;;;;5297721;27;20013;-76
2024/04/20 04:28:31;;;;;;;2.63;2.40;;;3.50;99.90;;;;;;5264564;27;20010;-76
2024/04/20 04:30:57;;;;;;;2.38;1.88;;;3.50;99.90;;;;;;5301241;27;20078;-76
2024/04/20 04:33:22;;;;;;;1.60;1.35;;;3.50;99.90;;;;;;5299099;27;19998;-76
2024/04/20 04:35:56;;;;;;;1.60;1.50;;;3.50;99.90;;;;;;5297735;27;20025;-76
2024/04/20 04:38:22;;;;;;;2.10;1.92;;;3.50;99.90;;;;;;5298545;27;20215;-77
2024/04/20 04:40:47;;;;;;;2.33;1.98;;;3.50;99.90;;;;;;5297654;27;20020;-76
2024/04/20 04:43:13;;;;;;;1.33;1.25;;;3.60;99.90;;;;;;5292573;27;20676;-76
2024/04/20 04:45:39;;;;;;;1.80;1.70;;;3.60;99.90;;;;;;5299066;27;20208;-77
2024/04/20 04:48:05;;;;;;;3.13;1.23;;;3.60;99.90;;;;;;5298164;27;20914;-76
2024/04/20 04:50:31;;;;;;;1.33;1.23;;;3.60;99.90;;;;;;5290056;27;20005;-76
2024/04/20 04:52:57;;;;;;;2.15;1.90;;;3.60;99.90;;;;;;5295132;27;20002;-76
2024/04/20 04:55:22;;;;;;;1.35;1.20;;;3.60;99.90;;;;;;5297870;27;20005;-76
2024/04/20 04:57:48;;;;;;;1.20;1.13;;;3.60;99.90;;;;;;5270765;27;20796;-76
2024/04/20 05:00:14;;;;;;;1.50;1.40;;;3.70;99.90;;;;;;5270898;27;20458;-76
2024/04/20 05:02:39;;;;;;;2.70;1.80;;;3.70;99.90;;;;;;5295788;27;20017;-76
2024/04/20 05:05:05;;;;;;;3.10;1.73;;;3.70;99.90;;;;;;5300080;27;19997;-76
2024/04/20 05:07:31;;;;;;;0.95;0.95;;;3.70;99.90;;;;;;5274515;27;20452;-76
2024/04/20 05:09:57;;;;;;;0.63;0.63;;;3.70;99.90;;;;;;5301498;27;20005;-76
2024/04/20 05:12:22;;;;;;;1.83;1.67;;;3.70;99.90;;;;;;5266672;27;20396;-76
2024/04/20 05:14:48;;;;;;;2.28;1.38;;;3.70;99.90;;;;;;5296913;26;20008;-76
2024/04/20 05:17:14;;;;;;;1.30;1.20;;;3.70;99.90;;;;;;5270139;27;20024;-76
2024/04/20 05:19:39;;;;;;;1.48;1.15;;;3.70;99.90;;;;;;5270234;27;20561;-76
2024/04/20 05:22:05;;;;;;;0.77;0.77;;;3.70;99.90;;;;;;5305224;26;20112;-76
2024/04/20 05:24:34;;;;;;;1.80;1.70;;;3.80;99.90;;;;;;5296100;27;20013;-76
2024/04/20 05:27:00;;;;;;;2.65;2.30;;;3.80;99.90;;;;;;5287350;27;20079;-75
2024/04/20 05:29:25;;;;;;;2.85;1.20;;;3.80;99.90;;;;;;5264753;27;20414;-76
2024/04/20 05:31:51;;;;;;;1.95;1.83;;;3.80;99.90;;;;;;5295707;27;20033;-75
2024/04/20 05:34:16;;;;;;;2.40;1.63;;;3.70;99.90;;;;;;5296816;27;20107;-75
2024/04/20 05:36:42;;;;;;;1.45;1.27;;;3.80;99.90;;;;;;5263694;27;19998;-76
2024/04/20 05:39:08;;;;;;;2.00;1.75;;;3.80;99.90;;;;;;5296050;27;20208;-75
2024/04/20 05:41:34;;;;;;;2.03;1.75;;;3.80;99.90;;;;;;5265062;27;20013;-76
2024/04/20 05:44:00;;;;;;;1.38;1.27;;;3.80;99.90;;;;;;5301459;27;20001;-76
2024/04/20 05:46:25;;;;;;;1.67;1.58;;;3.80;99.90;;;;;;5272822;27;20827;-75
2024/04/20 05:48:51;;;;;;;1.50;1.40;;;3.80;99.90;;;;;;5266703;27;20026;-76
2024/04/20 05:51:17;;;;;;;1.40;1.30;;;3.80;99.90;;;;;;5295434;27;19999;-75
2024/04/20 05:53:42;;;;;;;2.70;1.17;;;3.80;99.90;;;;;;5300140;27;19997;-75
2024/04/20 05:56:08;;;;;;;3.30;1.73;;;3.80;99.90;;;;;;5306192;27;19997;-76
2024/04/20 05:58:34;;;;;;;1.58;1.48;;;3.80;99.90;;;;;;5292840;27;20342;-75
2024/04/20 06:00:59;;;;;;;2.95;1.50;;;3.80;99.90;;;;;;5300326;27;20417;-75
2024/04/20 06:03:25;;;;;;;3.70;1.42;;;3.90;99.90;;;;;;5300402;27;20013;-75
2024/04/20 06:05:51;;;;;;;1.80;1.40;;;3.90;99.90;;;;;;5274176;27;20402;-76
2024/04/20 06:08:16;;;;;;;0.93;0.93;;;3.90;99.90;;;;;;5299876;27;20013;-76
2024/04/20 06:11:05;;;;;;;1.73;1.42;;;3.90;99.90;;;;;;5303772;27;20006;-76
2024/04/20 06:13:35;;;;;;;1.25;1.23;;;3.90;99.90;;;;;;5301493;27;20012;-76
2024/04/20 06:16:02;;;;;;;1.00;1.00;;;3.90;99.90;;;;;;5270755;27;20041;-76
2024/04/20 06:18:27;;;;;;;1.05;1.05;;;3.90;99.90;;;;;;5265674;27;20021;-76
2024/04/20 06:20:53;;;;;;;1.30;1.30;;;4.00;99.90;;;;;;5294134;27;20005;-77
2024/04/20 06:23:19;;;;;;;1.23;1.13;;;4.00;99.90;;;;;;5288505;27;20009;-76
2024/04/20 06:25:45;;;;;;;1.73;1.63;;;4.00;99.90;;;;;;5294210;27;20056;-76
2024/04/20 06:28:11;;;;;;;1.25;1.15;;;4.10;99.90;;;;;;5264326;27;20037;-76
2024/04/20 06:30:36;;;;;;;1.15;1.15;;;4.10;99.90;;;;;;5273191;26;20008;-77
2024/04/20 06:33:02;;;;;;;0.80;0.80;;;4.20;99.90;;;;;;5308404;27;20049;-76
2024/04/20 06:35:28;;;;;;;2.45;1.70;;;4.20;99.90;;;;;;5282253;27;19997;-75
2024/04/20 06:37:53;;;;;;;1.27;1.27;;;4.20;99.90;;;;;;5276149;27;20008;-76
2024/04/20 06:40:19;;;;;;;1.13;1.13;;;4.20;99.90;;;;;;5287546;27;20001;-76
2024/04/20 06:42:49;;;;;;;1.23;1.23;;;4.30;99.90;;;;;;5300719;27;20013;-76
2024/04/20 06:45:17;;;;;;;2.35;1.40;;;4.20;99.90;;;;;;5315124;27;20009;-77
2024/04/20 06:47:44;;;;;;;;;;;4.30;99.90;;;;;;5316337;27;19998;-77
2024/04/20 06:50:11;;;;;;;2.95;1.38;;;4.50;99.90;;;;;;5327120;26;19981;-78
2024/04/20 06:52:37;;;;;;;1.77;1.63;;;4.60;99.90;;;;;;5303178;26;20013;-77
2024/04/20 06:55:03;;;;;;;1.88;1.77;;;4.60;99.90;;;;;;5264885;27;20034;-77
2024/04/20 06:57:28;;;;;;;2.33;2.03;;;4.80;99.90;;;;;;5297592;27;20411;-79
2024/04/20 06:59:58;;;;;;;1.55;1.45;;;4.70;99.90;;;;;;5308182;26;20233;-78
2024/04/20 07:02:24;;;;;;;1.77;1.20;;;4.70;99.90;;;;;;5288608;26;19998;-77
2024/04/20 07:04:52;;;;;;;1.05;1.05;;;4.70;99.90;;;;;;5281547;27;20551;-78
2024/04/20 07:07:18;;;;;;;4.65;2.10;;;4.70;99.90;;;;;;5305343;26;20881;-78
2024/04/20 07:09:46;;;;;;;2.03;1.92;;;4.80;99.90;;;;;;5301648;26;20315;-76
2024/04/20 07:12:12;;;;;;;5.00;2.13;;;4.90;99.90;;;;;;5307455;26;20000;-77
2024/04/20 07:14:37;;;;;;;1.83;1.35;;;5.10;99.90;;;;;;5275457;27;20230;-77
2024/04/20 07:17:03;;;;;;;1.23;1.10;;;5.30;99.90;;;;;;5275455;27;20013;-77
2024/04/20 07:19:29;;;;;;;1.83;1.73;;;5.40;99.90;;;;;;5307989;26;19994;-77
2024/04/20 07:21:54;;;;;;;1.67;1.58;;;5.40;99.90;;;;;;5304497;26;20002;-77
2024/04/20 07:24:21;;;;;;;1.42;1.13;;;5.40;99.90;;;;;;5291818;27;20593;-77
2024/04/20 07:26:47;;;;;;;1.02;1.02;;;5.50;99.90;;;;;;5301835;27;20006;-77
2024/04/20 07:29:12;;;;;;;2.72;2.10;;;5.60;99.90;;;;;;5303245;26;20522;-77
2024/04/20 07:31:38;;;;;;;1.48;1.48;;;5.50;99.90;;;;;;5309311;26;19998;-76
2024/04/20 07:34:04;;;;;;;5.50;2.08;;;5.50;99.90;;;;;;5310902;27;20018;-78
2024/04/20 07:36:29;;;;;;;1.45;1.35;;;5.50;99.90;;;;;;5306097;26;20002;-77
2024/04/20 07:38:55;;;;;;;2.83;1.20;;;5.60;99.90;;;;;;5299949;27;20041;-77
2024/04/20 07:41:21;;;;;;;1.30;1.25;;;5.60;99.90;;;;;;5282935;27;20005;-77
2024/04/20 07:43:46;;;;;;;1.38;1.30;;;5.60;99.90;;;;;;5303250;26;20180;-79
2024/04/20 07:46:12;;;;;;;1.98;1.60;;;5.70;99.90;;;;;;5282919;27;20010;-76
2024/04/20 07:48:38;;;;;;;1.85;1.17;;;5.70;99.90;;;;;;5302550;27;20002;-80
2024/04/20 07:51:04;;;;;;;1.48;1.30;;;5.80;99.90;;;;;;5312552;27;20029;-77
2024/04/20 07:53:30;;;;;;;2.03;1.55;;;6.10;99.90;;;;;;5309911;27;20565;-75
2024/04/20 07:55:55;;;;;;;1.83;1.40;;;6.20;99.90;;;;;;5283412;26;20002;-78
2024/04/20 07:58:21;;;;;;;1.30;1.30;;;6.00;99.90;;;;;;5324488;26;20005;-77
2024/04/20 08:00:47;;;;;;;5.43;1.90;;;6.10;99.90;;;;;;5319915;26;20002;-77
2024/04/20 08:03:13;;;;;;;2.50;1.42;;;6.20;99.90;;;;;;5281300;26;19996;-78
2024/04/20 08:05:39;;;;;;;1.92;1.27;;;6.00;99.90;;;;;;5299923;26;20002;-78
2024/04/20 08:08:05;;;;;;;2.08;1.55;;;5.90;99.90;;;;;;5301586;27;20009;-76
2024/04/20 08:10:31;;;;;;;2.70;1.60;;;5.90;99.90;;;;;;5306052;26;20013;-80
2024/04/20 08:12:56;;;;;;;2.80;1.50;;;5.80;99.90;;;;;;5269733;27;20005;-80
2024/04/20 08:15:22;;;;;;;2.00;1.50;;;5.80;99.90;;;;;;5281760;26;20016;-77
2024/04/20 08:17:48;;;;;;;1.77;1.30;;;5.70;99.90;;;;;;5297828;26;20053;-77
2024/04/20 08:20:19;;;;;;;1.92;1.58;;;5.50;99.90;;;;;;5299791;26;20007;-76
2024/04/20 08:22:45;;;;;;;1.70;1.40;;;5.40;99.90;;;;;;5262221;27;20008;-76
2024/04/20 08:25:11;;;;;;;2.42;1.67;;;5.60;99.90;;;;;;5282519;27;19998;-76
2024/04/20 08:27:36;;;;;;;1.50;1.40;;;5.60;99.90;;;;;;5281666;27;20017;-76
2024/04/20 08:30:03;;;;;;;2.75;1.52;;;5.70;99.90;;;;;;5265847;27;20001;-76
2024/04/20 08:32:30;;;;;;;2.65;1.52;;;5.70;99.90;;;;;;5287720;27;20516;-76
2024/04/20 08:34:56;;;;;;;1.42;1.30;;;5.80;99.90;;;;;;5245096;27;20010;-77
2024/04/20 08:37:21;;;;;;;1.23;1.20;;;5.60;99.90;;;;;;5282156;27;20079;-76
2024/04/20 08:39:47;;;;;;;2.30;1.40;;;5.80;99.90;;;;;;5279869;27;20001;-76
2024/04/20 08:42:28;;;;;;;1.52;1.35;;;5.80;99.90;;;;;;5257310;27;20320;-76
2024/04/20 08:44:57;;;;;;;3.33;1.52;;;5.70;99.90;;;;;;5257277;27;19998;-76
2024/04/20 08:47:23;;;;;;;2.13;1.70;;;5.70;99.90;;;;;;5278075;27;20401;-77
2024/04/20 08:49:50;;;;;;;1.92;1.60;;;5.60;99.90;;;;;;5263284;27;20013;-76
2024/04/20 08:52:17;;;;;;;3.47;1.80;;;5.60;99.90;;;;;;5296771;27;19998;-75
2024/04/20 08:54:44;;;;;;;1.88;1.50;;;5.70;99.90;;;;;;5246949;27;20054;-76
2024/04/20 08:57:15;;;;;;;1.65;1.55;;;5.90;99.90;;;;;;5286414;27;20780;-77
2024/04/20 08:59:41;;;;;;;3.22;1.33;;;6.40;99.90;;;;;;5279264;27;20565;-76
2024/04/20 09:02:17;;;;;;;2.67;1.55;;;6.60;99.90;;;;;;5286009;27;20002;-77
2024/04/20 09:04:44;;;;;;;4.20;1.70;;;6.60;99.90;;;;;;5282868;27;21234;-78
2024/04/20 09:07:10;;;;;;;1.77;1.67;;;6.70;99.90;;;;;;5289761;27;20387;-76
2024/04/20 09:09:39;;;;;;;3.22;1.83;;;6.80;99.90;;;;;;5287009;27;20076;-75
2024/04/20 09:12:05;;;;;;;4.70;1.58;;;7.00;99.90;;;;;;5298786;26;20006;-76
2024/04/20 09:14:30;;;;;;;2.25;1.63;;;7.30;99.90;;;;;;5289204;27;20010;-76
2024/04/20 09:16:56;;;;;;;1.45;1.35;;;7.40;99.90;;;;;;5289467;27;20011;-75
2024/04/20 09:19:24;;;;;;;1.40;1.30;;;7.10;99.90;;;;;;5285150;27;20071;-75
2024/04/20 09:21:50;;;;;;;1.90;1.08;;;6.80;99.90;;;;;;5282722;27;20001;-75
2024/04/20 09:24:16;;;;;;;1.70;1.60;;;6.50;99.90;;;;;;5286757;27;20627;-76
2024/04/20 09:26:50;;;;;;;1.23;1.08;;;6.20;99.90;;;;;;5261186;27;20005;-78
2024/04/20 09:29:15;;;;;;;1.23;1.13;;;6.10;99.90;;;;;;5290995;27;20002;-76
2024/04/20 09:31:48;;;;;;;1.40;1.30;;;6.10;99.90;;;;;;5282616;27;20072;-76
2024/04/20 09:34:14;;;;;;;1.20;1.13;;;6.00;99.90;;;;;;5260680;27;20002;-76
2024/04/20 09:36:40;;;;;;;1.80;1.25;;;6.10;99.90;;;;;;5286065;27;20006;-76
2024/04/20 09:39:07;;;;;;;3.00;1.38;;;6.60;99.90;;;;;;5263272;27;20079;-76
2024/04/20 09:41:32;;;;;;;1.60;1.50;;;6.80;99.90;;;;;;5299825;26;20010;-79
2024/04/20 09:44:02;;;;;;;1.92;1.25;;;6.90;99.90;;;;;;5303706;26;20022;-76
2024/04/20 09:46:32;;;;;;;1.27;1.20;;;6.90;99.90;;;;;;5304342;26;20009;-79
2024/04/20 09:49:03;;;;;;;3.25;1.15;;;6.60;99.90;;;;;;5289115;27;20013;-76
2024/04/20 09:51:36;;;;;;;1.10;1.10;;;6.60;99.90;;;;;;5283402;26;20049;-79
2024/04/20 09:54:09;;;;;;;1.42;1.35;;;6.50;99.90;;;;;;5302469;26;20037;-76
2024/04/20 09:56:36;;;;;;;2.33;1.40;;;6.40;99.90;;;;;;5275989;27;20017;-78
2024/04/20 09:59:05;;;;;;;1.10;1.10;;;6.40;99.90;;;;;;5266438;27;20012;-77
2024/04/20 10:01:31;;;;;;;2.78;1.35;;;6.80;99.90;;;;;;5300125;27;20001;-76
2024/04/20 10:03:57;;;;;;;2.85;1.30;;;7.20;99.90;;;;;;5282990;27;20002;-78
2024/04/20 10:06:23;;;;;;;1.27;1.17;;;7.60;99.90;;;;;;5286264;27;20010;-78
2024/04/20 10:08:50;;;;;;;1.08;1.08;;;7.20;97.40;;;;;;5282093;27;20004;-79
2024/04/20 10:11:18;;;;;;;1.10;1.10;;;6.70;99.90;;;;;;5296291;27;20017;-78
2024/04/20 10:13:44;;;;;;;2.35;1.42;;;6.50;99.90;;;;;;5262667;27;20447;-77
2024/04/20 10:16:11;;;;;;;2.85;1.30;;;6.50;99.90;;;;;;5292852;27;20009;-79
2024/04/20 10:18:37;;;;;;;2.58;1.40;;;6.40;99.90;;;;;;5291517;27;20007;-79
2024/04/20 10:21:03;;;;;;;1.65;1.20;;;6.00;99.70;;;;;;5260927;27;20017;-79
2024/04/20 10:23:29;;;;;;;1.75;1.23;;;6.10;99.90;;;;;;5293588;27;20006;-78
2024/04/20 10:25:56;;;;;;;2.70;1.45;;;6.40;99.90;;;;;;5275218;27;20009;-79
2024/04/20 10:28:30;;;;;;;1.13;1.10;;;6.50;99.90;;;;;;5297161;27;20008;-81
2024/04/20 10:31:00;;;;;;;1.73;1.50;;;6.60;99.90;;;;;;5287492;27;20002;-80
2024/04/20 10:33:32;;;;;;;1.40;1.30;;;6.60;99.90;;;;;;5265025;27;19994;-79
2024/04/20 10:36:16;;;;;;;2.25;1.35;;;6.60;99.90;;;;;;5292608;27;20042;-79
2024/04/20 10:38:42;;;;;;;1.40;1.27;;;6.70;99.90;;;;;;5296685;27;20076;-79
2024/04/20 10:41:16;;;;;;;1.88;1.38;;;6.70;99.90;;;;;;5277347;26;19997;-78
2024/04/20 10:43:48;;;;;;;2.20;0.90;;;6.90;99.90;;;;;;5300380;26;20012;-81
2024/04/20 10:46:17;;;;;;;1.63;1.30;;;6.80;99.90;;;;;;5274224;27;20464;-81
2024/04/20 10:48:43;;;;;;;2.05;1.10;;;6.60;99.90;;;;;;5302760;27;20049;-78
2024/04/20 10:51:12;;;;;;;1.83;0.95;;;6.70;99.90;;;;;;5270946;27;20010;-79
2024/04/20 10:53:40;;;;;;;1.05;1.05;;;6.70;99.90;;;;;;5305427;27;20661;-78
2024/04/20 10:56:08;;;;;;;1.00;1.00;;;6.80;99.90;;;;;;5288909;27;20467;-74
2024/04/20 10:58:39;;;;;;;1.90;1.23;;;6.70;99.90;;;;;;5274552;27;20010;-75
2024/04/20 11:01:04;;;;;;;1.55;1.30;;;6.80;99.90;;;;;;5297109;26;20016;-75
2024/04/20 11:03:31;;;;;;;2.05;1.52;;;6.80;99.90;;;;;;5268927;27;20434;-75
2024/04/20 11:05:59;;;;;;;1.33;1.23;;;6.90;99.90;;;;;;5301904;26;20044;-73
2024/04/20 11:08:25;;;;;;;1.85;1.13;;;7.10;99.90;;;;;;5306999;26;20403;-74
2024/04/20 11:10:55;;;;;;;1.50;1.40;;;7.10;99.90;;;;;;5297603;26;20727;-73
2024/04/20 11:13:21;;;;;;;1.60;1.50;;;7.30;99.90;;;;;;5302624;26;20013;-73
2024/04/20 11:15:48;;;;;;;1.27;1.27;;;7.20;99.90;;;;;;5307647;26;20370;-74
2024/04/20 11:18:14;;;;;;;2.10;1.40;;;7.10;99.90;;;;;;5295246;27;20013;-73
2024/04/20 11:20:40;;;;;;;1.52;1.42;;;7.10;99.90;;;;;;5273751;27;20028;-73
2024/04/20 11:23:06;;;;;;;1.90;1.80;;;6.60;99.90;;;;;;5298074;27;19994;-73
2024/04/20 11:25:33;;;;;;;2.10;1.60;;;5.90;99.90;;;;;;5264402;27;20001;-73
2024/04/20 11:28:00;;;;;;;3.08;1.80;;;5.60;99.90;;;;;;5289687;27;20009;-75
2024/04/20 11:30:26;;;;;;;1.77;1.67;;;5.50;99.90;;;;;;5265406;27;20765;-74
2024/04/20 11:32:59;;;;;;;1.85;1.48;;;5.60;99.90;;;;;;5262030;27;19998;-74
2024/04/20 11:35:25;;;;;;;1.80;1.48;;;5.80;99.90;;;;;;5272360;27;20015;-74
2024/04/20 11:37:50;;;;;;;2.00;1.80;;;5.90;99.90;;;;;;5266886;26;20005;-74
2024/04/20 11:40:18;;;;;;;1.70;1.60;;;6.10;99.90;;;;;;5297436;26;20002;-73
2024/04/20 11:42:44;;;;;;;2.00;1.50;;;6.20;99.90;;;;;;5303364;26;20000;-74
2024/04/20 11:45:15;;;;;;;1.70;1.60;;;6.20;99.90;;;;;;5297256;26;20005;-73
2024/04/20 11:47:41;;;;;;;1.17;1.10;;;6.30;99.90;;;;;;5292434;26;20005;-73
2024/04/20 11:50:07;;;;;;;1.65;1.52;;;6.40;99.90;;;;;;5298162;26;19998;-72
2024/04/20 11:55:17;;;;;;;2.20;1.50;;;6.70;99.90;;;;;;5293591;27;20015;-74
2024/04/20 11:57:43;;;;;;;2.05;1.67;;;6.90;99.90;;;;;;5298312;27;19997;-74
2024/04/20 12:00:12;;;;;;;2.85;1.70;;;7.20;99.90;;;;;;5296267;27;20030;-73
2024/04/20 12:02:37;;;;;;;;;;;7.30;99.90;;;;;;5298318;26;20001;-74
2024/04/20 12:05:03;;;;;;;2.28;1.65;;;7.10;99.90;;;;;;5312490;26;19933;-74
2024/04/20 12:07:29;;;;;;;1.80;1.70;;;7.00;99.90;;;;;;5305530;26;20008;-74
2024/04/20 12:09:55;;;;;;;1.92;1.73;;;6.90;99.90;;;;;;5285882;27;20002;-74
2024/04/20 12:12:21;;;;;;;1.75;1.60;;;6.80;99.90;;;;;;5257660;27;20065;-74
2024/04/20 12:14:47;;;;;;;1.70;1.60;;;6.60;99.90;;;;;;5295399;26;20010;-74
2024/04/20 12:17:12;;;;;;;2.00;1.80;;;6.60;99.90;;;;;;5295991;27;19998;-74
2024/04/20 12:19:38;;;;;;;3.22;1.98;;;6.60;99.90;;;;;;5298531;27;20028;-74
2024/04/20 12:22:04;;;;;;;2.22;1.80;;;6.60;99.90;;;;;;5261611;26;20017;-76
2024/04/20 12:24:31;;;;;;;1.80;1.40;;;6.60;99.90;;;;;;5307862;26;20415;-75
2024/04/20 12:26:57;;;;;;;1.60;1.50;;;6.70;99.90;;;;;;5270994;26;20006;-76
2024/04/20 12:29:26;;;;;;;3.22;1.30;;;6.90;99.90;;;;;;5310565;26;20016;-76
2024/04/20 12:31:55;;;;;;;2.63;1.35;;;7.00;99.90;;;;;;5273131;27;20014;-74
2024/04/20 12:34:20;;;;;;;1.23;1.20;;;7.30;99.90;;;;;;5280880;26;20002;-74
2024/04/20 12:36:49;;;;;;;1.17;1.17;;;7.50;99.90;;;;;;5263612;26;20321;-74
2024/04/20 12:39:15;;;;;;;1.95;1.50;;;7.30;95.50;;;;;;5265387;26;20444;-74
2024/04/20 12:41:41;;;;;;;2.30;1.65;;;7.40;99.90;;;;;;5294339;27;19997;-72
2024/04/20 12:44:07;;;;;;;1.10;1.10;;;7.50;97.80;;;;;;5288854;27;20013;-73
2024/04/20 12:46:33;;;;;;;1.65;1.10;;;7.30;91.60;;;;;;5288983;26;20438;-73
2024/04/20 12:48:59;;;;;;;2.35;1.48;;;7.50;96.80;;;;;;5262114;27;20002;-72
2024/04/20 12:51:24;;;;;;;1.20;1.00;;;7.80;99.60;;;;;;5288293;27;20017;-73
2024/04/20 12:53:50;;;;;;;1.10;1.00;;;7.90;96.40;;;;;;5294081;27;20001;-72
2024/04/20 12:56:16;;;;;;;1.40;1.30;;;8.00;93.40;;;;;;5289585;27;20025;-73